createdAt,value
2023-06-04T00:03:00.235Z,8.52
2023-06-04T00:08:03.858Z,8.41
2023-06-04T00:13:07.392Z,8.32
2023-06-04T00:18:12.475Z,8.24
2023-06-04T00:23:15.966Z,8.20
2023-06-04T00:28:19.038Z,8.18
2023-06-04T00:33:22.148Z,8.19
2023-06-04T00:38:25.157Z,8.18
2023-06-04T00:43:28.885Z,8.17
2023-06-04T00:48:32.139Z,8.15
2023-06-04T00:53:35.201Z,8.11
2023-06-04T00:58:41.508Z,8.91
2023-06-04T01:03:48.981Z,11.32
2023-06-04T01:08:55.728Z,11.93
2023-06-04T01:13:59.112Z,10.46
2023-06-04T01:19:06.106Z,9.48
2023-06-04T01:24:09.624Z,8.73
2023-06-04T01:29:12.633Z,8.20
2023-06-04T01:34:16.255Z,7.80
2023-06-04T01:39:19.570Z,8.11
2023-06-04T01:44:22.580Z,10.44
2023-06-04T01:49:25.692Z,11.85
2023-06-04T01:54:28.998Z,11.15
2023-06-04T01:59:33.336Z,9.70
2023-06-04T02:04:37.906Z,8.84
2023-06-04T02:09:41.501Z,8.28
2023-06-04T02:14:46.572Z,8.78
2023-06-04T02:19:52.430Z,10.54
2023-06-04T02:24:55.554Z,9.57
2023-06-04T02:29:58.547Z,8.67
2023-06-04T02:35:01.863Z,8.12
2023-06-04T02:40:05.985Z,9.15
2023-06-04T02:45:11.459Z,11.25
2023-06-04T02:50:16.555Z,10.99
2023-06-04T02:55:19.628Z,9.49
2023-06-04T03:00:22.768Z,8.55
2023-06-04T03:05:28.090Z,8.00
2023-06-04T03:10:32.507Z,7.66
2023-06-04T03:15:35.774Z,7.47
2023-06-04T03:20:40.290Z,7.38
2023-06-04T03:25:43.407Z,7.35
2023-06-04T03:30:46.507Z,7.35
2023-06-04T03:35:49.730Z,8.24
2023-06-04T03:40:54.049Z,10.78
2023-06-04T03:45:57.288Z,12.42
2023-06-04T03:51:00.213Z,12.07
2023-06-04T03:56:03.287Z,10.91
2023-06-04T04:01:06.777Z,10.39
2023-06-04T04:06:11.901Z,10.12
2023-06-04T04:11:16.619Z,9.89
2023-06-04T04:16:19.746Z,9.84
2023-06-04T04:21:22.922Z,9.92
2023-06-04T04:26:29.005Z,10.02
2023-06-04T04:31:32.279Z,10.20
2023-06-04T04:36:37.889Z,10.48
2023-06-04T04:41:41.302Z,10.84
2023-06-04T04:46:44.736Z,11.19
2023-06-04T04:51:48.542Z,11.54
2023-06-04T04:56:58.583Z,11.88
2023-06-04T05:02:14.683Z,12.24
2023-06-04T05:07:17.745Z,12.69
2023-06-04T05:12:20.942Z,13.13
2023-06-04T05:17:31.786Z,13.52
2023-06-04T05:22:35.049Z,13.97
2023-06-04T05:27:39.590Z,14.39
2023-06-04T05:32:42.625Z,14.79
2023-06-04T05:37:47.045Z,15.25
2023-06-04T05:42:50.774Z,15.69
2023-06-04T05:47:56.151Z,16.09
2023-06-04T05:52:59.641Z,16.55
2023-06-04T05:58:02.655Z,16.87
2023-06-04T06:03:07.875Z,17.33
2023-06-04T06:08:11.579Z,17.84
2023-06-04T06:13:14.654Z,18.46
2023-06-04T06:18:17.755Z,19.08
2023-06-04T06:23:23.155Z,19.64
2023-06-04T06:28:26.422Z,20.34
2023-06-04T06:33:29.437Z,20.72
2023-06-04T06:38:33.151Z,21.16
2023-06-04T06:43:36.265Z,21.40
2023-06-04T06:48:39.222Z,21.74
2023-06-04T06:53:43.283Z,21.84
2023-06-04T06:58:47.368Z,22.21
2023-06-04T07:03:50.342Z,22.74
2023-06-04T07:08:53.756Z,23.13
2023-06-04T07:13:56.778Z,23.43
2023-06-04T07:18:59.966Z,23.85
2023-06-04T07:24:03.130Z,24.29
2023-06-04T07:29:06.918Z,24.98
2023-06-04T07:34:09.963Z,25.41
2023-06-04T07:39:12.921Z,25.66
2023-06-04T07:44:16.031Z,26.30
2023-06-04T07:49:19.075Z,26.54
2023-06-04T07:54:22.049Z,27.31
2023-06-04T07:59:25.295Z,28.11
2023-06-04T08:04:28.372Z,28.67
2023-06-04T08:09:32.103Z,28.52
2023-06-04T08:14:35.096Z,29.09
2023-06-04T08:19:38.368Z,29.62
2023-06-04T08:24:41.797Z,29.86
2023-06-04T08:29:44.723Z,30.55
2023-06-04T08:34:47.841Z,31.24
2023-06-04T08:39:50.705Z,31.64
2023-06-04T08:44:56.928Z,32.21
2023-06-04T08:50:03.642Z,32.69
2023-06-04T08:55:10.032Z,33.12
2023-06-04T09:00:14.202Z,31.48
2023-06-04T09:05:23.985Z,29.61
2023-06-04T09:10:27.862Z,27.83
2023-06-04T09:15:30.943Z,27.01
2023-06-04T09:20:34.257Z,28.00
2023-06-04T09:25:43.938Z,29.52
2023-06-04T09:30:56.478Z,29.49
2023-06-04T09:36:00.480Z,28.93
2023-06-04T09:41:07.780Z,28.69
2023-06-04T09:46:20.152Z,29.53
2023-06-04T09:51:23.225Z,30.03
2023-06-04T09:56:27.936Z,29.47
2023-06-04T10:01:31.440Z,30.37
2023-06-04T10:06:36.149Z,31.41
2023-06-04T10:11:44.974Z,31.10
2023-06-04T10:16:49.930Z,30.90
2023-06-04T10:21:54.171Z,30.77
2023-06-04T10:27:00.392Z,31.17
2023-06-04T10:32:04.132Z,31.56
2023-06-04T10:37:07.283Z,31.63
2023-06-04T10:42:10.468Z,31.93
2023-06-04T10:47:28.250Z,31.62
2023-06-04T10:52:31.571Z,30.35
2023-06-04T10:57:34.577Z,28.98
2023-06-04T11:02:39.574Z,29.01
2023-06-04T11:07:51.157Z,30.44
2023-06-04T11:12:54.391Z,31.49
2023-06-04T11:18:00.579Z,32.48
2023-06-04T11:23:04.915Z,33.27
2023-06-04T11:28:08.169Z,33.69
2023-06-04T11:33:11.412Z,33.91
2023-06-04T11:38:14.505Z,34.18
2023-06-04T11:43:17.604Z,33.52
2023-06-04T11:48:21.617Z,31.68
2023-06-04T11:53:25.359Z,31.30
2023-06-04T11:58:28.889Z,31.92
2023-06-04T12:03:38.315Z,33.02
2023-06-04T12:08:47.797Z,33.64
2023-06-04T12:13:50.799Z,34.81
2023-06-04T12:19:09.133Z,36.07
2023-06-04T12:24:13.196Z,36.96
2023-06-04T12:29:17.842Z,37.10
2023-06-04T12:34:20.950Z,36.93
2023-06-04T12:39:24.065Z,36.80
2023-06-04T12:44:27.581Z,36.78
2023-06-04T12:49:30.689Z,36.41
2023-06-04T12:54:34.105Z,35.65
2023-06-04T12:59:37.334Z,33.98
2023-06-04T13:04:40.324Z,32.09
2023-06-04T13:09:43.643Z,30.49
2023-06-04T13:14:46.746Z,30.27
2023-06-04T13:19:49.821Z,31.77
2023-06-04T13:24:53.377Z,33.46
2023-06-04T13:29:56.406Z,34.66
2023-06-04T13:34:59.594Z,35.18
2023-06-04T13:40:03.212Z,35.64
2023-06-04T13:45:07.217Z,36.62
2023-06-04T13:50:11.674Z,37.46
2023-06-04T13:55:15.003Z,37.31
2023-06-04T14:00:18.054Z,36.94
2023-06-04T14:05:21.215Z,36.31
2023-06-04T14:10:24.225Z,35.58
2023-06-04T14:15:27.646Z,35.18
2023-06-04T14:20:31.793Z,35.17
2023-06-04T14:25:37.791Z,34.82
2023-06-04T14:30:40.963Z,32.65
2023-06-04T14:35:48.177Z,30.27
2023-06-04T14:40:51.483Z,28.65
2023-06-04T14:45:54.486Z,29.34
2023-06-04T14:50:57.503Z,28.55
2023-06-04T14:56:00.727Z,27.09
2023-06-04T15:01:05.174Z,26.01
2023-06-04T15:06:18.782Z,25.26
2023-06-04T15:11:23.248Z,24.96
2023-06-04T15:16:26.445Z,24.92
2023-06-04T15:21:29.773Z,25.01
2023-06-04T15:26:33.189Z,24.70
2023-06-04T15:31:36.305Z,24.48
2023-06-04T15:36:39.918Z,24.17
2023-06-04T15:41:43.030Z,23.88
2023-06-04T15:46:46.139Z,23.92
2023-06-04T15:51:49.146Z,23.98
2023-06-04T15:56:52.464Z,23.88
2023-06-04T16:01:55.518Z,23.83
2023-06-04T16:06:58.577Z,23.70
2023-06-04T16:12:01.798Z,23.48
2023-06-04T16:17:05.108Z,23.22
2023-06-04T16:22:08.106Z,22.91
2023-06-04T16:27:12.040Z,22.77
2023-06-04T16:32:15.043Z,22.82
2023-06-04T16:37:18.046Z,22.81
2023-06-04T16:42:21.158Z,22.73
2023-06-04T16:47:25.251Z,22.57
2023-06-04T16:52:28.452Z,22.49
2023-06-04T16:57:32.945Z,22.40
2023-06-04T17:02:36.346Z,22.35
2023-06-04T17:07:39.596Z,22.29
2023-06-04T17:12:42.887Z,22.21
2023-06-04T17:17:49.215Z,22.13
2023-06-04T17:22:54.018Z,21.97
2023-06-04T17:27:57.552Z,21.63
2023-06-04T17:33:00.888Z,21.50
2023-06-04T17:38:04.062Z,21.42
2023-06-04T17:43:07.116Z,21.32
2023-06-04T17:48:10.211Z,21.14
2023-06-04T17:53:13.299Z,21.00
2023-06-04T17:58:17.425Z,20.89
2023-06-04T18:03:20.630Z,20.72
2023-06-04T18:08:23.849Z,20.52
2023-06-04T18:13:27.158Z,20.33
2023-06-04T18:18:30.168Z,20.17
2023-06-04T18:23:33.350Z,19.98
2023-06-04T18:28:36.485Z,19.78
2023-06-04T18:33:53.618Z,19.57
2023-06-04T18:38:56.738Z,19.32
2023-06-04T18:43:59.861Z,19.09
2023-06-04T18:49:03.986Z,18.84
2023-06-04T18:54:08.165Z,18.56
2023-06-04T18:59:16.139Z,18.30
2023-06-04T19:04:19.334Z,18.03
2023-06-04T19:09:22.556Z,17.78
2023-06-04T19:14:26.231Z,17.51
2023-06-04T19:19:29.387Z,17.23
2023-06-04T19:24:33.317Z,16.97
2023-06-04T19:29:36.424Z,16.71
2023-06-04T19:34:39.747Z,16.48
2023-06-04T19:39:42.854Z,16.29
2023-06-04T19:44:45.859Z,16.10
2023-06-04T19:49:48.964Z,15.87
2023-06-04T19:54:52.080Z,15.65
2023-06-04T19:59:55.195Z,15.44
2023-06-04T20:04:59.241Z,15.24
2023-06-04T20:10:06.001Z,15.05
2023-06-04T20:15:09.963Z,14.87
2023-06-04T20:20:13.148Z,14.69
2023-06-04T20:25:16.458Z,14.53
2023-06-04T20:30:19.581Z,14.39
2023-06-04T20:35:22.687Z,14.26
2023-06-04T20:40:26.107Z,14.14
2023-06-04T20:45:29.211Z,14.03
2023-06-04T20:50:32.316Z,13.92
2023-06-04T20:55:36.512Z,13.82
2023-06-04T21:00:39.674Z,13.73
2023-06-04T21:05:42.980Z,13.63
2023-06-04T21:10:46.288Z,13.53
2023-06-04T21:15:49.333Z,13.43
2023-06-04T21:20:53.587Z,13.33
2023-06-04T21:25:56.599Z,13.24
2023-06-04T21:30:59.754Z,13.13
2023-06-04T21:36:03.478Z,13.03
2023-06-04T21:41:06.630Z,12.93
2023-06-04T21:46:10.094Z,12.82
2023-06-04T21:51:13.221Z,12.73
2023-06-04T21:56:16.434Z,12.64
2023-06-04T22:01:20.900Z,12.55
2023-06-04T22:06:24.505Z,12.45
2023-06-04T22:11:27.595Z,12.36
2023-06-04T22:16:30.672Z,12.27
2023-06-04T22:21:33.827Z,12.19
2023-06-04T22:26:38.334Z,12.11
2023-06-04T22:31:42.259Z,12.02
2023-06-04T22:36:46.379Z,11.92
2023-06-04T22:41:49.407Z,11.83
2023-06-04T22:46:52.519Z,11.75
2023-06-04T22:51:55.791Z,11.66
2023-06-04T22:56:58.978Z,11.58
2023-06-04T23:02:02.313Z,11.49
2023-06-04T23:07:06.126Z,11.44
2023-06-04T23:12:10.233Z,11.37
2023-06-04T23:17:13.468Z,11.30
2023-06-04T23:22:16.756Z,11.24
2023-06-04T23:27:19.881Z,11.18
2023-06-04T23:32:23.437Z,11.10
2023-06-04T23:37:27.203Z,11.04
2023-06-04T23:42:30.324Z,10.99
2023-06-04T23:47:33.373Z,10.95
2023-06-04T23:52:36.545Z,10.91
2023-06-04T23:57:39.546Z,10.89
